createdAt,value
2018-12-22T00:06:36.229Z,12.85
2018-12-22T00:10:03.144Z,12.36
2018-12-22T00:13:30.644Z,12.51
2018-12-22T00:16:57.627Z,12.71
2018-12-22T00:20:25.387Z,12.61
2018-12-22T00:23:54.314Z,12.77
2018-12-22T00:27:22.448Z,12.80
2018-12-22T00:30:50.632Z,12.81
2018-12-22T00:34:15.413Z,12.66
2018-12-22T00:37:40.057Z,12.76
2018-12-22T00:41:04.780Z,12.46
2018-12-22T00:44:29.442Z,12.26
2018-12-22T00:47:54.083Z,12.62
2018-12-22T00:51:18.822Z,12.81
2018-12-22T00:54:43.605Z,12.37
2018-12-22T00:58:08.290Z,12.65
2018-12-22T01:01:32.918Z,13.02
2018-12-22T01:04:57.587Z,12.73
2018-12-22T01:08:22.193Z,12.39
2018-12-22T01:11:46.863Z,12.27
2018-12-22T01:15:11.568Z,12.47
2018-12-22T01:18:36.267Z,12.20
2018-12-22T01:22:00.955Z,12.17
2018-12-22T01:25:25.605Z,12.22
2018-12-22T01:28:50.280Z,12.22
2018-12-22T01:32:15.128Z,11.81
2018-12-22T01:35:39.881Z,12.19
2018-12-22T01:39:05.483Z,12.09
2018-12-22T01:42:30.448Z,12.13
2018-12-22T01:45:55.115Z,12.26
2018-12-22T01:49:19.838Z,11.94
2018-12-22T01:52:44.548Z,11.97
2018-12-22T01:56:09.343Z,11.76
2018-12-22T01:59:34.046Z,12.00
2018-12-22T02:02:58.703Z,11.94
2018-12-22T02:06:23.466Z,12.12
2018-12-22T02:09:48.189Z,12.03
2018-12-22T02:13:12.949Z,12.01
2018-12-22T02:16:37.672Z,12.00
2018-12-22T02:20:02.377Z,12.05
2018-12-22T02:23:27.110Z,11.86
2018-12-22T02:26:51.779Z,11.57
2018-12-22T02:30:16.386Z,11.66
2018-12-22T02:33:41.053Z,11.72
2018-12-22T02:37:05.709Z,11.56
2018-12-22T02:40:33.209Z,11.27
2018-12-22T02:43:57.866Z,11.61
2018-12-22T02:47:22.584Z,11.68
2018-12-22T02:50:47.305Z,11.72
2018-12-22T02:54:11.957Z,11.83
2018-12-22T02:57:36.601Z,12.03
2018-12-22T03:01:01.213Z,12.10
2018-12-22T03:04:25.902Z,11.87
2018-12-22T03:07:50.541Z,11.93
2018-12-22T03:11:15.309Z,11.96
2018-12-22T03:14:40.071Z,11.92
2018-12-22T03:18:04.776Z,11.76
2018-12-22T03:21:29.477Z,11.82
2018-12-22T03:24:54.245Z,11.76
2018-12-22T03:28:18.920Z,11.45
2018-12-22T03:31:43.599Z,11.63
2018-12-22T03:35:08.417Z,11.54
2018-12-22T03:38:33.261Z,11.43
2018-12-22T03:41:58.052Z,11.45
2018-12-22T03:45:22.794Z,11.65
2018-12-22T03:48:54.203Z,11.21
2018-12-22T03:52:18.926Z,11.12
2018-12-22T03:55:43.585Z,11.35
2018-12-22T03:59:08.375Z,11.07
2018-12-22T04:02:33.026Z,11.22
2018-12-22T04:05:57.782Z,11.31
2018-12-22T04:09:22.544Z,11.20
2018-12-22T04:12:47.452Z,11.06
2018-12-22T04:16:12.155Z,11.21
2018-12-22T04:19:36.851Z,11.30
2018-12-22T04:23:01.511Z,11.30
2018-12-22T04:26:26.405Z,11.13
2018-12-22T04:29:51.215Z,11.33
2018-12-22T04:33:15.935Z,11.22
2018-12-22T04:36:40.649Z,11.26
2018-12-22T04:40:05.754Z,11.32
2018-12-22T04:43:30.510Z,11.25
2018-12-22T04:46:55.291Z,11.39
2018-12-22T04:50:19.974Z,11.09
2018-12-22T04:53:44.634Z,11.24
2018-12-22T04:57:09.264Z,11.37
2018-12-22T05:00:34.144Z,11.68
2018-12-22T05:03:58.762Z,11.34
2018-12-22T05:07:23.436Z,11.44
2018-12-22T05:10:48.055Z,11.32
2018-12-22T05:14:12.744Z,11.29
2018-12-22T05:17:37.472Z,11.41
2018-12-22T05:21:02.265Z,11.35
2018-12-22T05:24:26.919Z,11.23
2018-12-22T05:27:51.578Z,11.39
2018-12-22T05:31:16.267Z,11.49
2018-12-22T05:34:40.947Z,11.53
2018-12-22T05:38:05.601Z,11.58
2018-12-22T05:41:30.210Z,11.57
2018-12-22T05:44:54.870Z,11.57
2018-12-22T05:48:19.519Z,11.66
2018-12-22T05:51:44.197Z,11.66
2018-12-22T05:55:08.892Z,11.65
2018-12-22T05:58:33.548Z,11.49
2018-12-22T06:01:58.206Z,11.59
2018-12-22T06:05:22.896Z,11.43
2018-12-22T06:08:47.581Z,11.83
2018-12-22T06:12:12.224Z,11.58
2018-12-22T06:15:36.875Z,11.21
2018-12-22T06:19:01.500Z,11.33
2018-12-22T06:22:26.198Z,11.24
2018-12-22T06:25:50.853Z,11.06
2018-12-22T06:29:15.511Z,11.07
2018-12-22T06:32:40.154Z,11.05
2018-12-22T06:36:04.965Z,10.85
2018-12-22T06:39:29.687Z,10.82
2018-12-22T06:42:54.375Z,10.83
2018-12-22T06:46:19.246Z,10.89
2018-12-22T06:49:43.955Z,11.04
2018-12-22T06:53:08.834Z,10.76
2018-12-22T06:56:33.521Z,10.90
2018-12-22T06:59:58.161Z,10.79
2018-12-22T07:03:22.778Z,11.00
2018-12-22T07:06:47.473Z,10.83
2018-12-22T07:10:12.299Z,10.94
2018-12-22T07:13:36.907Z,10.82
2018-12-22T07:17:01.620Z,11.29
2018-12-22T07:20:26.437Z,11.05
2018-12-22T07:23:51.109Z,11.40
2018-12-22T07:27:15.772Z,11.16
2018-12-22T07:30:47.066Z,11.24
2018-12-22T07:34:11.786Z,11.37
2018-12-22T07:37:36.485Z,11.04
2018-12-22T07:41:01.155Z,11.21
2018-12-22T07:44:25.826Z,11.52
2018-12-22T07:47:50.499Z,11.41
2018-12-22T07:51:15.232Z,11.50
2018-12-22T07:54:40.063Z,11.64
2018-12-22T07:58:04.933Z,11.36
2018-12-22T08:01:29.732Z,11.21
2018-12-22T08:04:54.473Z,11.24
2018-12-22T08:08:19.201Z,11.65
2018-12-22T08:11:43.935Z,11.39
2018-12-22T08:15:08.915Z,11.40
2018-12-22T08:18:33.536Z,11.37
2018-12-22T08:21:58.187Z,11.57
2018-12-22T08:25:22.974Z,11.70
2018-12-22T08:28:47.681Z,11.60
2018-12-22T08:32:12.545Z,11.69
2018-12-22T08:35:37.394Z,11.68
2018-12-22T08:39:02.135Z,11.58
2018-12-22T08:42:26.841Z,11.67
2018-12-22T08:45:51.578Z,12.01
2018-12-22T08:49:16.168Z,11.53
2018-12-22T08:52:40.778Z,11.71
2018-12-22T08:56:05.606Z,11.71
2018-12-22T08:59:30.220Z,11.77
2018-12-22T09:02:54.979Z,11.92
2018-12-22T09:06:19.620Z,12.18
2018-12-22T09:09:44.280Z,12.45
2018-12-22T09:13:08.918Z,12.06
2018-12-22T09:16:33.634Z,12.20
2018-12-22T09:19:58.328Z,12.16
2018-12-22T09:23:22.953Z,12.30
2018-12-22T09:26:47.616Z,12.18
2018-12-22T09:30:13.954Z,11.78
2018-12-22T09:33:38.696Z,12.05
2018-12-22T09:37:03.447Z,11.96
2018-12-22T09:40:28.213Z,12.47
2018-12-22T09:43:52.980Z,12.17
2018-12-22T09:47:17.592Z,12.50
2018-12-22T09:50:42.250Z,12.32
2018-12-22T09:54:07.038Z,12.66
2018-12-22T09:57:31.823Z,12.54
2018-12-22T10:01:00.320Z,12.43
2018-12-22T10:04:25.251Z,12.52
2018-12-22T10:07:49.914Z,12.43
2018-12-22T10:11:14.560Z,12.25
2018-12-22T10:14:39.338Z,12.61
2018-12-22T10:18:04.056Z,12.84
2018-12-22T10:21:28.725Z,12.71
2018-12-22T10:24:53.407Z,12.71
2018-12-22T10:28:18.442Z,12.21
2018-12-22T10:31:43.136Z,12.53
2018-12-22T10:35:13.243Z,12.43
2018-12-22T10:38:37.955Z,12.56
2018-12-22T10:42:02.687Z,13.06
2018-12-22T10:45:27.386Z,13.05
2018-12-22T10:48:52.063Z,12.83
2018-12-22T10:52:16.733Z,13.17
2018-12-22T10:55:41.499Z,13.02
2018-12-22T10:59:06.233Z,13.41
2018-12-22T11:02:30.911Z,12.94
2018-12-22T11:05:55.685Z,13.05
2018-12-22T11:09:21.159Z,12.97
2018-12-22T11:12:45.835Z,12.91
2018-12-22T11:16:10.686Z,12.98
2018-12-22T11:19:35.438Z,13.22
2018-12-22T11:23:00.151Z,13.47
2018-12-22T11:26:24.820Z,13.30
2018-12-22T11:29:49.475Z,13.14
2018-12-22T11:33:14.562Z,12.87
2018-12-22T11:36:39.519Z,14.01
2018-12-22T11:40:06.429Z,13.49
2018-12-22T11:43:31.381Z,14.19
2018-12-22T11:47:01.101Z,13.74
2018-12-22T11:50:27.688Z,13.28
2018-12-22T11:53:52.379Z,13.39
2018-12-22T11:57:17.077Z,13.60
2018-12-22T12:00:41.935Z,12.87
2018-12-22T12:04:06.741Z,12.89
2018-12-22T12:07:31.415Z,12.94
2018-12-22T12:10:56.228Z,13.40
2018-12-22T12:14:20.926Z,13.18
2018-12-22T12:19:04.935Z,13.34
2018-12-22T12:22:29.736Z,13.13
2018-12-22T12:25:54.381Z,13.23
2018-12-22T12:29:25.642Z,13.43
2018-12-22T12:32:50.263Z,12.79
2018-12-22T12:36:15.063Z,12.62
2018-12-22T12:39:39.678Z,12.86
2018-12-22T12:43:07.296Z,12.69
2018-12-22T12:46:46.040Z,13.09
2018-12-22T12:50:14.207Z,12.96
2018-12-22T12:53:39.133Z,13.04
2018-12-22T12:57:04.122Z,13.24
2018-12-22T13:00:28.937Z,13.19
2018-12-22T13:03:53.933Z,13.43
2018-12-22T13:07:18.871Z,12.97
2018-12-22T13:10:43.746Z,13.35
2018-12-22T13:14:16.512Z,12.94
2018-12-22T13:17:41.422Z,12.60
2018-12-22T13:21:08.974Z,12.14
2018-12-22T13:24:33.723Z,12.18
2018-12-22T13:27:58.566Z,11.84
2018-12-22T13:31:27.181Z,12.06
2018-12-22T13:34:52.702Z,11.91
2018-12-22T13:38:18.411Z,11.69
2018-12-22T13:41:43.282Z,11.52
2018-12-22T13:45:28.187Z,11.02
2018-12-22T13:48:53.497Z,10.71
2018-12-22T13:52:18.250Z,10.67
2018-12-22T13:55:42.936Z,10.44
2018-12-22T13:59:07.736Z,10.74
2018-12-22T14:02:37.245Z,10.87
2018-12-22T14:06:01.939Z,10.69
2018-12-22T14:09:26.613Z,10.51
2018-12-22T14:12:51.421Z,10.58
2018-12-22T14:16:30.156Z,10.61
2018-12-22T14:20:03.451Z,10.56
2018-12-22T14:23:39.867Z,10.64
2018-12-22T14:27:05.025Z,10.98
2018-12-22T14:30:29.865Z,11.12
2018-12-22T14:34:00.672Z,11.23
2018-12-22T14:37:25.322Z,11.24
2018-12-22T14:40:50.019Z,11.23
2018-12-22T14:44:14.727Z,11.23
2018-12-22T14:47:39.447Z,11.32
2018-12-22T14:51:04.179Z,11.07
2018-12-22T14:54:28.955Z,11.11
2018-12-22T14:58:00.094Z,11.30
2018-12-22T15:01:24.965Z,10.97
2018-12-22T15:04:49.573Z,11.18
2018-12-22T15:08:14.242Z,11.10
2018-12-22T15:11:38.859Z,11.31
2018-12-22T15:15:03.475Z,11.19
2018-12-22T15:18:28.113Z,11.39
2018-12-22T15:23:21.507Z,11.26
2018-12-22T15:26:46.193Z,11.11
2018-12-22T15:30:14.300Z,11.08
2018-12-22T15:33:39.160Z,11.21
2018-12-22T15:37:03.909Z,11.09
2018-12-22T15:40:28.664Z,11.00
2018-12-22T15:43:53.362Z,10.85
2018-12-22T15:47:18.051Z,11.12
2018-12-22T15:50:44.112Z,11.15
2018-12-22T15:54:09.031Z,11.31
2018-12-22T15:57:33.686Z,11.40
2018-12-22T16:00:58.364Z,11.33
2018-12-22T16:04:23.167Z,11.69
2018-12-22T16:07:47.915Z,11.22
2018-12-22T16:11:12.566Z,11.66
2018-12-22T16:14:37.256Z,11.66
2018-12-22T16:18:01.934Z,11.53
2018-12-22T16:21:26.640Z,11.41
2018-12-22T16:24:51.294Z,11.35
2018-12-22T16:28:23.443Z,11.26
2018-12-22T16:31:48.137Z,11.23
2018-12-22T16:35:12.894Z,11.43
2018-12-22T16:38:37.582Z,11.31
2018-12-22T16:42:02.257Z,11.38
2018-12-22T16:45:26.920Z,11.30
2018-12-22T16:48:51.572Z,11.52
2018-12-22T16:52:16.218Z,11.31
2018-12-22T16:55:40.856Z,11.22
2018-12-22T16:59:05.903Z,11.25
2018-12-22T17:02:56.331Z,11.17
2018-12-22T17:06:21.217Z,11.09
2018-12-22T17:09:45.908Z,11.39
2018-12-22T17:13:11.931Z,11.06
2018-12-22T17:16:36.810Z,11.58
2018-12-22T17:20:01.508Z,11.31
2018-12-22T17:23:42.379Z,10.99
2018-12-22T17:27:07.064Z,11.35
2018-12-22T17:30:31.710Z,11.27
2018-12-22T17:33:56.369Z,11.20
2018-12-22T17:37:21.116Z,11.17
2018-12-22T17:40:45.852Z,11.02
2018-12-22T17:44:10.506Z,10.98
2018-12-22T17:47:35.232Z,11.00
2018-12-22T17:50:59.917Z,11.14
2018-12-22T17:54:24.577Z,11.28
2018-12-22T17:57:49.232Z,11.45
2018-12-22T18:01:13.901Z,11.42
2018-12-22T18:04:38.555Z,11.28
2018-12-22T18:08:03.190Z,11.15
2018-12-22T18:11:28.026Z,10.96
2018-12-22T18:14:52.674Z,11.23
2018-12-22T18:18:17.387Z,11.39
2018-12-22T18:21:42.089Z,11.34
2018-12-22T18:25:10.169Z,11.11
2018-12-22T18:28:37.692Z,11.47
2018-12-22T18:32:02.338Z,11.33
2018-12-22T18:35:26.951Z,11.13
2018-12-22T18:38:51.638Z,11.46
2018-12-22T18:42:16.889Z,11.31
2018-12-22T18:45:41.483Z,11.55
2018-12-22T18:49:06.101Z,11.41
2018-12-22T18:52:30.708Z,11.27
2018-12-22T18:55:55.359Z,11.23
2018-12-22T18:59:21.941Z,11.23
2018-12-22T19:02:46.623Z,11.04
2018-12-22T19:06:11.274Z,11.11
2018-12-22T19:09:38.742Z,11.02
2018-12-22T19:13:03.399Z,10.75
2018-12-22T19:16:28.051Z,11.00
2018-12-22T19:19:53.395Z,10.24
2018-12-22T19:23:20.268Z,10.28
2018-12-22T19:26:44.955Z,10.00
2018-12-22T19:30:09.759Z,10.04
2018-12-22T19:33:34.471Z,10.01
2018-12-22T19:36:59.083Z,10.03
2018-12-22T19:40:23.727Z,9.94
2018-12-22T19:43:48.391Z,10.01
2018-12-22T19:47:13.110Z,10.15
2018-12-22T19:50:37.752Z,9.91
2018-12-22T19:54:02.423Z,9.91
2018-12-22T19:57:27.090Z,10.06
2018-12-22T20:00:51.732Z,10.39
2018-12-22T20:04:16.083Z,9.89
2018-12-22T20:07:40.781Z,10.33
2018-12-22T20:11:05.444Z,10.21
2018-12-22T20:14:30.079Z,10.23
2018-12-22T20:17:54.798Z,10.37
2018-12-22T20:21:19.464Z,10.13
2018-12-22T20:24:44.178Z,10.17
2018-12-22T20:28:08.891Z,10.58
2018-12-22T20:31:33.516Z,10.47
2018-12-22T20:34:58.173Z,10.48
2018-12-22T20:38:22.832Z,10.46
2018-12-22T20:41:47.442Z,10.29
2018-12-22T20:45:12.071Z,10.26
2018-12-22T20:48:36.772Z,10.48
2018-12-22T20:52:01.450Z,9.90
2018-12-22T20:55:26.090Z,10.41
2018-12-22T20:58:50.777Z,10.41
2018-12-22T21:02:15.411Z,10.42
2018-12-22T21:05:47.693Z,10.44
2018-12-22T21:09:12.451Z,10.33
2018-12-22T21:12:37.044Z,10.06
2018-12-22T21:16:01.717Z,10.17
2018-12-22T21:19:26.516Z,10.23
2018-12-22T21:22:51.263Z,10.11
2018-12-22T21:26:15.970Z,10.26
2018-12-22T21:29:40.648Z,9.96
2018-12-22T21:33:05.300Z,10.15
2018-12-22T21:36:30.072Z,10.13
2018-12-22T21:39:54.780Z,10.11
2018-12-22T21:43:19.449Z,10.10
2018-12-22T21:46:44.069Z,9.78
2018-12-22T21:50:08.731Z,9.94
2018-12-22T21:53:33.355Z,10.15
2018-12-22T21:56:58.286Z,10.05
2018-12-22T22:00:23.134Z,9.95
2018-12-22T22:03:48.175Z,10.24
2018-12-22T22:07:13.028Z,9.95
2018-12-22T22:10:38.244Z,9.99
2018-12-22T22:14:03.043Z,10.28
2018-12-22T22:17:27.880Z,10.31
2018-12-22T22:20:52.724Z,10.18
2018-12-22T22:24:17.787Z,9.93
2018-12-22T22:27:43.057Z,10.35
2018-12-22T22:31:07.852Z,10.41
2018-12-22T22:34:35.530Z,10.16
2018-12-22T22:38:00.285Z,10.55
2018-12-22T22:41:25.098Z,10.24
2018-12-22T22:44:49.879Z,10.20
2018-12-22T22:48:15.630Z,10.34
2018-12-22T22:51:40.431Z,10.45
2018-12-22T22:55:05.441Z,10.44
2018-12-22T22:58:30.059Z,10.55
2018-12-22T23:01:54.734Z,10.74
2018-12-22T23:05:19.376Z,10.56
2018-12-22T23:08:44.037Z,10.90
2018-12-22T23:12:08.687Z,10.83
2018-12-22T23:15:33.345Z,10.87
2018-12-22T23:18:57.987Z,10.47
2018-12-22T23:22:22.674Z,10.70
2018-12-22T23:25:47.383Z,10.60
2018-12-22T23:29:12.079Z,10.79
2018-12-22T23:32:36.738Z,10.62
2018-12-22T23:36:01.329Z,10.70
2018-12-22T23:39:25.959Z,10.61
2018-12-22T23:42:50.636Z,10.48
2018-12-22T23:46:15.304Z,10.68
2018-12-22T23:49:42.639Z,10.59
2018-12-22T23:53:12.027Z,10.61
2018-12-22T23:56:39.584Z,10.47
